sensor_id;sensor_type;location;lat;lon;timestamp;P1;durP1;ratioP1;P2;durP2;ratioP2
18677;SDS011;9469;51.114;13.914;2024-03-29T00:04:07;4.03;;;1.47;;
18677;SDS011;9469;51.114;13.914;2024-03-29T00:09:10;1.67;;;1.20;;
18677;SDS011;9469;51.114;13.914;2024-03-29T00:14:12;2.50;;;1.30;;
18677;SDS011;9469;51.114;13.914;2024-03-29T00:19:14;1.43;;;1.10;;
18677;SDS011;9469;51.114;13.914;2024-03-29T00:24:18;2.87;;;1.27;;
18677;SDS011;9469;51.114;13.914;2024-03-29T00:29:19;3.03;;;1.40;;
18677;SDS011;9469;51.114;13.914;2024-03-29T00:34:21;3.07;;;1.63;;
18677;SDS011;9469;51.114;13.914;2024-03-29T00:39:25;1.07;;;1.00;;
18677;SDS011;9469;51.114;13.914;2024-03-29T00:44:26;1.40;;;1.17;;
18677;SDS011;9469;51.114;13.914;2024-03-29T00:49:27;2.63;;;1.13;;
18677;SDS011;9469;51.114;13.914;2024-03-29T00:54:31;1.53;;;1.43;;
18677;SDS011;9469;51.114;13.914;2024-03-29T00:59:33;2.27;;;1.00;;
18677;SDS011;9469;51.114;13.914;2024-03-29T01:04:34;1.50;;;1.10;;
18677;SDS011;9469;51.114;13.914;2024-03-29T01:09:39;2.20;;;1.10;;
18677;SDS011;9469;51.114;13.914;2024-03-29T01:14:40;6.20;;;1.53;;
18677;SDS011;9469;51.114;13.914;2024-03-29T01:19:41;1.93;;;1.30;;
18677;SDS011;9469;51.114;13.914;2024-03-29T01:24:47;2.80;;;1.23;;
18677;SDS011;9469;51.114;13.914;2024-03-29T01:29:48;1.27;;;0.90;;
18677;SDS011;9469;51.114;13.914;2024-03-29T01:34:49;1.27;;;1.10;;
18677;SDS011;9469;51.114;13.914;2024-03-29T01:39:53;1.50;;;1.20;;
18677;SDS011;9469;51.114;13.914;2024-03-29T01:44:55;3.93;;;1.20;;
18677;SDS011;9469;51.114;13.914;2024-03-29T01:49:56;2.00;;;1.17;;
18677;SDS011;9469;51.114;13.914;2024-03-29T01:55:01;7.67;;;1.67;;
18677;SDS011;9469;51.114;13.914;2024-03-29T02:00:03;2.90;;;1.40;;
18677;SDS011;9469;51.114;13.914;2024-03-29T02:05:07;1.13;;;1.00;;
18677;SDS011;9469;51.114;13.914;2024-03-29T02:10:12;2.37;;;1.13;;
18677;SDS011;9469;51.114;13.914;2024-03-29T02:15:15;4.40;;;1.30;;
18677;SDS011;9469;51.114;13.914;2024-03-29T02:20:17;2.00;;;1.60;;
18677;SDS011;9469;51.114;13.914;2024-03-29T02:25:21;3.03;;;1.23;;
18677;SDS011;9469;51.114;13.914;2024-03-29T02:30:22;2.40;;;1.50;;
18677;SDS011;9469;51.114;13.914;2024-03-29T02:35:26;2.10;;;1.30;;
18677;SDS011;9469;51.114;13.914;2024-03-29T02:40:34;2.83;;;1.37;;
18677;SDS011;9469;51.114;13.914;2024-03-29T02:45:36;2.20;;;1.10;;
18677;SDS011;9469;51.114;13.914;2024-03-29T02:50:37;3.40;;;1.70;;
18677;SDS011;9469;51.114;13.914;2024-03-29T02:55:41;3.47;;;1.60;;
18677;SDS011;9469;51.114;13.914;2024-03-29T03:00:43;4.70;;;1.73;;
18677;SDS011;9469;51.114;13.914;2024-03-29T03:05:44;5.87;;;2.00;;
18677;SDS011;9469;51.114;13.914;2024-03-29T03:10:48;3.37;;;2.20;;
18677;SDS011;9469;51.114;13.914;2024-03-29T03:16:00;4.93;;;2.90;;
18677;SDS011;9469;51.114;13.914;2024-03-29T03:21:01;4.77;;;2.37;;
18677;SDS011;9469;51.114;13.914;2024-03-29T03:26:06;3.80;;;2.43;;
18677;SDS011;9469;51.114;13.914;2024-03-29T03:31:07;3.30;;;2.27;;
18677;SDS011;9469;51.114;13.914;2024-03-29T03:36:09;4.63;;;2.27;;
18677;SDS011;9469;51.114;13.914;2024-03-29T03:41:13;3.90;;;2.07;;
18677;SDS011;9469;51.114;13.914;2024-03-29T03:46:14;4.27;;;2.00;;
18677;SDS011;9469;51.114;13.914;2024-03-29T03:51:15;3.57;;;2.33;;
18677;SDS011;9469;51.114;13.914;2024-03-29T03:56:19;4.33;;;1.87;;
18677;SDS011;9469;51.114;13.914;2024-03-29T04:01:21;3.43;;;2.17;;
18677;SDS011;9469;51.114;13.914;2024-03-29T04:06:22;3.67;;;2.20;;
18677;SDS011;9469;51.114;13.914;2024-03-29T04:11:26;3.87;;;1.90;;
18677;SDS011;9469;51.114;13.914;2024-03-29T04:16:28;2.10;;;1.93;;
18677;SDS011;9469;51.114;13.914;2024-03-29T04:21:29;3.20;;;2.33;;
18677;SDS011;9469;51.114;13.914;2024-03-29T04:26:33;3.50;;;2.20;;
18677;SDS011;9469;51.114;13.914;2024-03-29T04:31:34;4.23;;;2.30;;
18677;SDS011;9469;51.114;13.914;2024-03-29T04:36:36;2.57;;;2.37;;
18677;SDS011;9469;51.114;13.914;2024-03-29T04:41:40;3.57;;;2.17;;
18677;SDS011;9469;51.114;13.914;2024-03-29T04:46:41;4.27;;;1.87;;
18677;SDS011;9469;51.114;13.914;2024-03-29T04:51:42;3.50;;;2.10;;
18677;SDS011;9469;51.114;13.914;2024-03-29T04:56:47;2.53;;;2.00;;
18677;SDS011;9469;51.114;13.914;2024-03-29T05:01:48;2.73;;;1.87;;
18677;SDS011;9469;51.114;13.914;2024-03-29T05:06:49;3.33;;;1.87;;
18677;SDS011;9469;51.114;13.914;2024-03-29T05:11:54;3.20;;;2.17;;
18677;SDS011;9469;51.114;13.914;2024-03-29T05:16:55;3.37;;;1.93;;
18677;SDS011;9469;51.114;13.914;2024-03-29T05:21:56;2.33;;;1.70;;
18677;SDS011;9469;51.114;13.914;2024-03-29T05:27:00;2.93;;;1.97;;
18677;SDS011;9469;51.114;13.914;2024-03-29T05:32:02;3.70;;;1.90;;
18677;SDS011;9469;51.114;13.914;2024-03-29T05:37:04;2.03;;;1.83;;
18677;SDS011;9469;51.114;13.914;2024-03-29T05:42:08;4.27;;;1.73;;
18677;SDS011;9469;51.114;13.914;2024-03-29T05:47:09;4.03;;;1.93;;
18677;SDS011;9469;51.114;13.914;2024-03-29T05:52:11;1.83;;;1.67;;
18677;SDS011;9469;51.114;13.914;2024-03-29T05:57:15;3.63;;;1.80;;
18677;SDS011;9469;51.114;13.914;2024-03-29T06:02:16;3.63;;;2.03;;
18677;SDS011;9469;51.114;13.914;2024-03-29T06:07:18;2.23;;;2.00;;
18677;SDS011;9469;51.114;13.914;2024-03-29T06:12:22;3.50;;;1.90;;
18677;SDS011;9469;51.114;13.914;2024-03-29T06:17:23;2.50;;;1.67;;
18677;SDS011;9469;51.114;13.914;2024-03-29T06:22:25;3.77;;;1.83;;
18677;SDS011;9469;51.114;13.914;2024-03-29T06:27:29;5.70;;;2.37;;
18677;SDS011;9469;51.114;13.914;2024-03-29T06:32:30;2.10;;;1.70;;
18677;SDS011;9469;51.114;13.914;2024-03-29T06:37:32;3.50;;;1.97;;
18677;SDS011;9469;51.114;13.914;2024-03-29T06:42:36;3.93;;;1.83;;
18677;SDS011;9469;51.114;13.914;2024-03-29T06:47:37;2.23;;;1.80;;
18677;SDS011;9469;51.114;13.914;2024-03-29T06:52:38;3.93;;;1.70;;
18677;SDS011;9469;51.114;13.914;2024-03-29T06:57:44;2.53;;;2.00;;
18677;SDS011;9469;51.114;13.914;2024-03-29T07:02:46;2.97;;;1.77;;
18677;SDS011;9469;51.114;13.914;2024-03-29T07:07:47;1.80;;;1.70;;
18677;SDS011;9469;51.114;13.914;2024-03-29T07:12:51;2.10;;;1.60;;
18677;SDS011;9469;51.114;13.914;2024-03-29T07:17:53;1.87;;;1.47;;
18677;SDS011;9469;51.114;13.914;2024-03-29T07:22:54;3.30;;;2.37;;
18677;SDS011;9469;51.114;13.914;2024-03-29T07:27:58;1.63;;;1.50;;
18677;SDS011;9469;51.114;13.914;2024-03-29T07:32:59;2.87;;;1.90;;
18677;SDS011;9469;51.114;13.914;2024-03-29T07:38:03;2.40;;;1.90;;
18677;SDS011;9469;51.114;13.914;2024-03-29T07:43:07;3.37;;;1.70;;
18677;SDS011;9469;51.114;13.914;2024-03-29T07:48:10;2.80;;;2.20;;
18677;SDS011;9469;51.114;13.914;2024-03-29T07:53:13;2.23;;;1.53;;
18677;SDS011;9469;51.114;13.914;2024-03-29T07:58:17;2.70;;;1.87;;
18677;SDS011;9469;51.114;13.914;2024-03-29T08:03:19;3.43;;;1.83;;
18677;SDS011;9469;51.114;13.914;2024-03-29T08:08:21;3.40;;;1.97;;
18677;SDS011;9469;51.114;13.914;2024-03-29T08:13:26;3.60;;;1.77;;
18677;SDS011;9469;51.114;13.914;2024-03-29T08:18:28;2.73;;;1.90;;
18677;SDS011;9469;51.114;13.914;2024-03-29T08:23:31;2.53;;;2.00;;
18677;SDS011;9469;51.114;13.914;2024-03-29T08:28:35;2.53;;;1.90;;
18677;SDS011;9469;51.114;13.914;2024-03-29T08:33:36;2.63;;;1.80;;
18677;SDS011;9469;51.114;13.914;2024-03-29T08:38:38;4.93;;;1.60;;
18677;SDS011;9469;51.114;13.914;2024-03-29T08:43:42;3.17;;;2.00;;
18677;SDS011;9469;51.114;13.914;2024-03-29T08:48:44;2.87;;;1.80;;
18677;SDS011;9469;51.114;13.914;2024-03-29T08:53:45;3.87;;;2.13;;
18677;SDS011;9469;51.114;13.914;2024-03-29T08:58:49;2.53;;;1.40;;
18677;SDS011;9469;51.114;13.914;2024-03-29T09:03:50;3.37;;;1.53;;
18677;SDS011;9469;51.114;13.914;2024-03-29T09:08:52;3.93;;;2.93;;
18677;SDS011;9469;51.114;13.914;2024-03-29T09:13:56;2.83;;;2.20;;
18677;SDS011;9469;51.114;13.914;2024-03-29T09:18:58;2.70;;;1.10;;
18677;SDS011;9469;51.114;13.914;2024-03-29T09:24:00;1.87;;;1.50;;
18677;SDS011;9469;51.114;13.914;2024-03-29T09:29:04;3.30;;;1.63;;
18677;SDS011;9469;51.114;13.914;2024-03-29T09:34:05;1.77;;;1.30;;
18677;SDS011;9469;51.114;13.914;2024-03-29T09:39:07;5.17;;;1.30;;
18677;SDS011;9469;51.114;13.914;2024-03-29T09:44:11;2.10;;;1.20;;
18677;SDS011;9469;51.114;13.914;2024-03-29T09:49:13;1.80;;;1.10;;
18677;SDS011;9469;51.114;13.914;2024-03-29T09:54:15;1.27;;;1.17;;
18677;SDS011;9469;51.114;13.914;2024-03-29T09:59:22;1.70;;;1.30;;
18677;SDS011;9469;51.114;13.914;2024-03-29T10:04:24;1.93;;;1.30;;
18677;SDS011;9469;51.114;13.914;2024-03-29T10:09:26;1.47;;;0.93;;
18677;SDS011;9469;51.114;13.914;2024-03-29T10:14:30;4.70;;;2.00;;
18677;SDS011;9469;51.114;13.914;2024-03-29T10:19:31;1.70;;;1.10;;
18677;SDS011;9469;51.114;13.914;2024-03-29T10:24:33;1.67;;;1.03;;
18677;SDS011;9469;51.114;13.914;2024-03-29T10:29:37;3.73;;;1.10;;
18677;SDS011;9469;51.114;13.914;2024-03-29T10:34:40;1.63;;;1.00;;
18677;SDS011;9469;51.114;13.914;2024-03-29T10:39:42;3.23;;;1.60;;
18677;SDS011;9469;51.114;13.914;2024-03-29T10:44:46;2.43;;;0.97;;
18677;SDS011;9469;51.114;13.914;2024-03-29T10:49:50;1.53;;;1.23;;
18677;SDS011;9469;51.114;13.914;2024-03-29T10:54:51;2.20;;;1.20;;
18677;SDS011;9469;51.114;13.914;2024-03-29T10:59:59;1.73;;;1.23;;
18677;SDS011;9469;51.114;13.914;2024-03-29T11:05:05;1.73;;;0.90;;
18677;SDS011;9469;51.114;13.914;2024-03-29T11:10:13;1.57;;;1.27;;
18677;SDS011;9469;51.114;13.914;2024-03-29T11:15:19;1.53;;;1.10;;
18677;SDS011;9469;51.114;13.914;2024-03-29T11:20:28;3.87;;;1.33;;
18677;SDS011;9469;51.114;13.914;2024-03-29T11:25:38;1.10;;;0.90;;
18677;SDS011;9469;51.114;13.914;2024-03-29T11:30:44;4.67;;;1.30;;
18677;SDS011;9469;51.114;13.914;2024-03-29T11:35:46;2.90;;;1.20;;
18677;SDS011;9469;51.114;13.914;2024-03-29T11:40:54;2.20;;;1.10;;
18677;SDS011;9469;51.114;13.914;2024-03-29T11:45:58;1.70;;;1.13;;
18677;SDS011;9469;51.114;13.914;2024-03-29T11:51:02;2.83;;;1.10;;
18677;SDS011;9469;51.114;13.914;2024-03-29T11:56:04;2.27;;;1.30;;
18677;SDS011;9469;51.114;13.914;2024-03-29T12:01:09;3.23;;;1.43;;
18677;SDS011;9469;51.114;13.914;2024-03-29T12:06:11;2.27;;;1.20;;
18677;SDS011;9469;51.114;13.914;2024-03-29T12:11:13;2.57;;;1.23;;
18677;SDS011;9469;51.114;13.914;2024-03-29T12:16:17;2.50;;;1.37;;
18677;SDS011;9469;51.114;13.914;2024-03-29T12:21:18;2.33;;;1.17;;
18677;SDS011;9469;51.114;13.914;2024-03-29T12:26:20;1.93;;;1.00;;
18677;SDS011;9469;51.114;13.914;2024-03-29T12:31:24;2.60;;;1.30;;
18677;SDS011;9469;51.114;13.914;2024-03-29T12:36:28;4.03;;;1.40;;
18677;SDS011;9469;51.114;13.914;2024-03-29T12:41:33;2.50;;;1.30;;
18677;SDS011;9469;51.114;13.914;2024-03-29T12:46:37;1.60;;;1.20;;
18677;SDS011;9469;51.114;13.914;2024-03-29T12:51:39;5.70;;;1.80;;
18677;SDS011;9469;51.114;13.914;2024-03-29T12:56:41;2.00;;;1.40;;
18677;SDS011;9469;51.114;13.914;2024-03-29T13:01:45;2.63;;;1.53;;
18677;SDS011;9469;51.114;13.914;2024-03-29T13:06:47;2.57;;;1.20;;
18677;SDS011;9469;51.114;13.914;2024-03-29T13:11:51;2.30;;;1.20;;
18677;SDS011;9469;51.114;13.914;2024-03-29T13:16:55;5.20;;;1.40;;
18677;SDS011;9469;51.114;13.914;2024-03-29T13:21:56;2.47;;;1.23;;
18677;SDS011;9469;51.114;13.914;2024-03-29T13:27:01;2.10;;;1.10;;
18677;SDS011;9469;51.114;13.914;2024-03-29T13:32:08;2.80;;;0.90;;
18677;SDS011;9469;51.114;13.914;2024-03-29T13:37:09;2.60;;;0.80;;
18677;SDS011;9469;51.114;13.914;2024-03-29T13:42:10;3.33;;;1.20;;
18677;SDS011;9469;51.114;13.914;2024-03-29T13:47:14;1.60;;;1.17;;
18677;SDS011;9469;51.114;13.914;2024-03-29T13:52:17;1.30;;;1.00;;
18677;SDS011;9469;51.114;13.914;2024-03-29T13:57:19;2.10;;;1.30;;
18677;SDS011;9469;51.114;13.914;2024-03-29T14:02:23;1.13;;;0.90;;
18677;SDS011;9469;51.114;13.914;2024-03-29T14:07:24;1.47;;;0.93;;
18677;SDS011;9469;51.114;13.914;2024-03-29T14:12:26;1.57;;;1.10;;
18677;SDS011;9469;51.114;13.914;2024-03-29T14:17:32;1.90;;;1.10;;
18677;SDS011;9469;51.114;13.914;2024-03-29T14:22:33;1.33;;;0.97;;
18677;SDS011;9469;51.114;13.914;2024-03-29T14:27:35;1.63;;;0.87;;
18677;SDS011;9469;51.114;13.914;2024-03-29T14:32:39;1.73;;;0.70;;
18677;SDS011;9469;51.114;13.914;2024-03-29T14:37:41;1.83;;;1.10;;
18677;SDS011;9469;51.114;13.914;2024-03-29T14:42:43;1.93;;;0.80;;
18677;SDS011;9469;51.114;13.914;2024-03-29T14:47:47;1.53;;;0.87;;
18677;SDS011;9469;51.114;13.914;2024-03-29T14:52:48;1.23;;;0.80;;
18677;SDS011;9469;51.114;13.914;2024-03-29T14:57:49;2.00;;;0.80;;
18677;SDS011;9469;51.114;13.914;2024-03-29T15:02:53;1.53;;;1.03;;
18677;SDS011;9469;51.114;13.914;2024-03-29T15:07:55;2.83;;;1.37;;
18677;SDS011;9469;51.114;13.914;2024-03-29T15:12:56;2.37;;;1.40;;
18677;SDS011;9469;51.114;13.914;2024-03-29T15:18:00;1.60;;;1.10;;
18677;SDS011;9469;51.114;13.914;2024-03-29T15:23:02;3.73;;;1.57;;
18677;SDS011;9469;51.114;13.914;2024-03-29T15:28:03;2.43;;;1.40;;
18677;SDS011;9469;51.114;13.914;2024-03-29T15:33:23;2.50;;;0.90;;
18677;SDS011;9469;51.114;13.914;2024-03-29T15:38:24;1.47;;;1.13;;
18677;SDS011;9469;51.114;13.914;2024-03-29T15:43:26;2.00;;;1.30;;
18677;SDS011;9469;51.114;13.914;2024-03-29T15:48:30;3.47;;;1.20;;
18677;SDS011;9469;51.114;13.914;2024-03-29T15:53:32;3.00;;;1.70;;
18677;SDS011;9469;51.114;13.914;2024-03-29T15:58:33;1.83;;;1.70;;
18677;SDS011;9469;51.114;13.914;2024-03-29T16:03:37;5.17;;;2.93;;
18677;SDS011;9469;51.114;13.914;2024-03-29T16:08:39;3.00;;;2.10;;
18677;SDS011;9469;51.114;13.914;2024-03-29T16:13:40;3.33;;;2.30;;
18677;SDS011;9469;51.114;13.914;2024-03-29T16:18:45;6.60;;;3.60;;
18677;SDS011;9469;51.114;13.914;2024-03-29T16:23:46;6.43;;;4.53;;
18677;SDS011;9469;51.114;13.914;2024-03-29T16:28:47;6.20;;;3.40;;
18677;SDS011;9469;51.114;13.914;2024-03-29T16:33:51;6.27;;;2.97;;
18677;SDS011;9469;51.114;13.914;2024-03-29T16:38:55;15.40;;;7.63;;
18677;SDS011;9469;51.114;13.914;2024-03-29T16:43:57;11.23;;;5.87;;
18677;SDS011;9469;51.114;13.914;2024-03-29T16:49:01;11.93;;;5.40;;
18677;SDS011;9469;51.114;13.914;2024-03-29T16:54:03;4.00;;;2.77;;
18677;SDS011;9469;51.114;13.914;2024-03-29T16:59:04;4.50;;;2.53;;
18677;SDS011;9469;51.114;13.914;2024-03-29T17:04:08;5.50;;;3.43;;
18677;SDS011;9469;51.114;13.914;2024-03-29T17:09:10;6.40;;;4.00;;
18677;SDS011;9469;51.114;13.914;2024-03-29T17:14:32;10.53;;;7.77;;
18677;SDS011;9469;51.114;13.914;2024-03-29T17:19:37;10.53;;;8.30;;
18677;SDS011;9469;51.114;13.914;2024-03-29T17:24:38;16.20;;;7.10;;
18677;SDS011;9469;51.114;13.914;2024-03-29T17:29:39;14.40;;;7.70;;
18677;SDS011;9469;51.114;13.914;2024-03-29T17:34:43;16.37;;;10.00;;
18677;SDS011;9469;51.114;13.914;2024-03-29T17:39:45;9.87;;;6.47;;
18677;SDS011;9469;51.114;13.914;2024-03-29T17:44:46;9.10;;;6.53;;
18677;SDS011;9469;51.114;13.914;2024-03-29T17:49:50;13.93;;;6.87;;
18677;SDS011;9469;51.114;13.914;2024-03-29T17:54:52;14.63;;;7.70;;
18677;SDS011;9469;51.114;13.914;2024-03-29T17:59:53;13.40;;;7.27;;
18677;SDS011;9469;51.114;13.914;2024-03-29T18:04:57;10.73;;;7.27;;
18677;SDS011;9469;51.114;13.914;2024-03-29T18:09:58;13.17;;;8.70;;
18677;SDS011;9469;51.114;13.914;2024-03-29T18:15:00;10.33;;;6.73;;
18677;SDS011;9469;51.114;13.914;2024-03-29T18:20:04;7.60;;;5.03;;
18677;SDS011;9469;51.114;13.914;2024-03-29T18:25:07;7.43;;;4.33;;
18677;SDS011;9469;51.114;13.914;2024-03-29T18:30:10;5.47;;;3.17;;
18677;SDS011;9469;51.114;13.914;2024-03-29T18:35:14;5.60;;;3.83;;
18677;SDS011;9469;51.114;13.914;2024-03-29T18:40:16;5.77;;;3.70;;
18677;SDS011;9469;51.114;13.914;2024-03-29T18:45:17;9.50;;;4.73;;
18677;SDS011;9469;51.114;13.914;2024-03-29T18:50:21;7.77;;;4.93;;
18677;SDS011;9469;51.114;13.914;2024-03-29T18:55:23;6.57;;;3.47;;
18677;SDS011;9469;51.114;13.914;2024-03-29T19:00:24;4.43;;;3.30;;
18677;SDS011;9469;51.114;13.914;2024-03-29T19:05:29;5.70;;;3.27;;
18677;SDS011;9469;51.114;13.914;2024-03-29T19:10:30;4.07;;;2.80;;
18677;SDS011;9469;51.114;13.914;2024-03-29T19:15:32;5.43;;;3.60;;
18677;SDS011;9469;51.114;13.914;2024-03-29T19:20:36;8.13;;;6.80;;
18677;SDS011;9469;51.114;13.914;2024-03-29T19:25:37;5.80;;;4.07;;
18677;SDS011;9469;51.114;13.914;2024-03-29T19:30:39;4.43;;;3.47;;
18677;SDS011;9469;51.114;13.914;2024-03-29T19:35:43;5.20;;;3.47;;
18677;SDS011;9469;51.114;13.914;2024-03-29T19:40:44;5.00;;;3.10;;
18677;SDS011;9469;51.114;13.914;2024-03-29T19:45:46;5.17;;;3.70;;
18677;SDS011;9469;51.114;13.914;2024-03-29T19:50:50;7.40;;;4.90;;
18677;SDS011;9469;51.114;13.914;2024-03-29T19:55:51;6.70;;;4.20;;
18677;SDS011;9469;51.114;13.914;2024-03-29T20:00:53;5.73;;;4.80;;
18677;SDS011;9469;51.114;13.914;2024-03-29T20:05:57;6.70;;;4.30;;
18677;SDS011;9469;51.114;13.914;2024-03-29T20:10:58;5.63;;;4.63;;
18677;SDS011;9469;51.114;13.914;2024-03-29T20:16:00;6.70;;;4.90;;
18677;SDS011;9469;51.114;13.914;2024-03-29T20:21:04;7.57;;;4.33;;
18677;SDS011;9469;51.114;13.914;2024-03-29T20:26:05;6.23;;;4.27;;
18677;SDS011;9469;51.114;13.914;2024-03-29T20:31:07;7.77;;;4.97;;
18677;SDS011;9469;51.114;13.914;2024-03-29T20:36:11;9.90;;;4.60;;
18677;SDS011;9469;51.114;13.914;2024-03-29T20:41:13;6.57;;;4.07;;
18677;SDS011;9469;51.114;13.914;2024-03-29T20:46:14;6.37;;;4.00;;
18677;SDS011;9469;51.114;13.914;2024-03-29T20:51:18;5.30;;;3.37;;
18677;SDS011;9469;51.114;13.914;2024-03-29T20:56:20;7.07;;;4.40;;
18677;SDS011;9469;51.114;13.914;2024-03-29T21:01:21;5.93;;;3.87;;
18677;SDS011;9469;51.114;13.914;2024-03-29T21:06:40;5.63;;;3.37;;
18677;SDS011;9469;51.114;13.914;2024-03-29T21:11:41;7.10;;;2.83;;
18677;SDS011;9469;51.114;13.914;2024-03-29T21:16:43;5.57;;;2.27;;
18677;SDS011;9469;51.114;13.914;2024-03-29T21:21:47;5.47;;;2.80;;
18677;SDS011;9469;51.114;13.914;2024-03-29T21:26:49;6.93;;;2.60;;
18677;SDS011;9469;51.114;13.914;2024-03-29T21:31:50;7.37;;;2.67;;
18677;SDS011;9469;51.114;13.914;2024-03-29T21:36:54;5.47;;;2.40;;
18677;SDS011;9469;51.114;13.914;2024-03-29T21:41:55;8.70;;;2.90;;
18677;SDS011;9469;51.114;13.914;2024-03-29T21:46:57;7.73;;;2.80;;
18677;SDS011;9469;51.114;13.914;2024-03-29T21:52:01;4.47;;;3.40;;
18677;SDS011;9469;51.114;13.914;2024-03-29T21:57:03;8.80;;;2.83;;
18677;SDS011;9469;51.114;13.914;2024-03-29T22:02:04;4.13;;;2.60;;
18677;SDS011;9469;51.114;13.914;2024-03-29T22:07:09;4.90;;;2.50;;
18677;SDS011;9469;51.114;13.914;2024-03-29T22:12:11;4.63;;;2.60;;
18677;SDS011;9469;51.114;13.914;2024-03-29T22:17:13;8.33;;;2.70;;
18677;SDS011;9469;51.114;13.914;2024-03-29T22:22:17;4.67;;;2.40;;
18677;SDS011;9469;51.114;13.914;2024-03-29T22:27:18;4.20;;;2.67;;
18677;SDS011;9469;51.114;13.914;2024-03-29T22:32:20;6.30;;;2.60;;
18677;SDS011;9469;51.114;13.914;2024-03-29T22:37:24;5.53;;;3.13;;
18677;SDS011;9469;51.114;13.914;2024-03-29T22:42:25;7.30;;;2.47;;
18677;SDS011;9469;51.114;13.914;2024-03-29T22:47:27;4.77;;;2.90;;
18677;SDS011;9469;51.114;13.914;2024-03-29T22:52:30;3.90;;;2.50;;
18677;SDS011;9469;51.114;13.914;2024-03-29T22:57:32;8.00;;;3.40;;
18677;SDS011;9469;51.114;13.914;2024-03-29T23:02:33;6.53;;;3.00;;
18677;SDS011;9469;51.114;13.914;2024-03-29T23:07:37;5.93;;;3.53;;
18677;SDS011;9469;51.114;13.914;2024-03-29T23:12:38;7.07;;;2.60;;
18677;SDS011;9469;51.114;13.914;2024-03-29T23:17:40;4.93;;;3.03;;
18677;SDS011;9469;51.114;13.914;2024-03-29T23:22:44;4.73;;;2.63;;
18677;SDS011;9469;51.114;13.914;2024-03-29T23:27:45;6.90;;;2.90;;
18677;SDS011;9469;51.114;13.914;2024-03-29T23:32:47;5.37;;;2.67;;
18677;SDS011;9469;51.114;13.914;2024-03-29T23:37:52;5.40;;;2.53;;
18677;SDS011;9469;51.114;13.914;2024-03-29T23:42:53;5.73;;;3.40;;
18677;SDS011;9469;51.114;13.914;2024-03-29T23:47:55;4.83;;;2.77;;
18677;SDS011;9469;51.114;13.914;2024-03-29T23:52:59;5.93;;;2.87;;
18677;SDS011;9469;51.114;13.914;2024-03-29T23:58:00;6.50;;;2.93;;
